<?xml version="1.0" encoding="UTF-8" standalone="no" ?>
<gpx xmlns="http://www.topografix.com/GPX/1/1" xmlns:xsi="http://www.w3.org/2001/XMLSchema-instance" xsi:schemaLocation="http://www.topografix.com/GPX/1/1 http://www.topografix.com/GPX/1/1/gpx.xsd" version="1.1" creator="VisuGPX - https://www.visugpx.com">
  <metadata>
    <name>Course à pied dans l'après-midi</name>
  </metadata>
  <trk>
    <name><![CDATA[Course à pied dans l'après-midi_1]]></name>
    <trkseg>
      <trkpt lat="48.73512" lon="7.05123">
        <ele>248.9</ele>
        <time>2023-11-20T13:25:06Z</time>
      </trkpt>
      <trkpt lat="48.73507" lon="7.05096">
        <ele>249.1</ele>
        <time>2023-11-20T13:25:13Z</time>
      </trkpt>
      <trkpt lat="48.73509" lon="7.05067">
        <ele>249.3</ele>
        <time>2023-11-20T13:25:20Z</time>
      </trkpt>
      <trkpt lat="48.73515" lon="7.05042">
        <ele>249.3</ele>
        <time>2023-11-20T13:25:29Z</time>
      </trkpt>
      <trkpt lat="48.73535" lon="7.05036">
        <ele>248.9</ele>
        <time>2023-11-20T13:25:37Z</time>
      </trkpt>
      <trkpt lat="48.73553" lon="7.05022">
        <ele>248.7</ele>
        <time>2023-11-20T13:25:45Z</time>
      </trkpt>
      <trkpt lat="48.73571" lon="7.04995">
        <ele>248.5</ele>
        <time>2023-11-20T13:25:53Z</time>
      </trkpt>
      <trkpt lat="48.7359" lon="7.0499">
        <ele>248.3</ele>
        <time>2023-11-20T13:26:00Z</time>
      </trkpt>
      <trkpt lat="48.7361" lon="7.04989">
        <ele>248.1</ele>
        <time>2023-11-20T13:26:07Z</time>
      </trkpt>
      <trkpt lat="48.73632" lon="7.04984">
        <ele>247.8</ele>
        <time>2023-11-20T13:26:14Z</time>
      </trkpt>
      <trkpt lat="48.73651" lon="7.04981">
        <ele>247.5</ele>
        <time>2023-11-20T13:26:22Z</time>
      </trkpt>
      <trkpt lat="48.73669" lon="7.04976">
        <ele>246.6</ele>
        <time>2023-11-20T13:26:29Z</time>
      </trkpt>
      <trkpt lat="48.73688" lon="7.04965">
        <ele>245.7</ele>
        <time>2023-11-20T13:26:35Z</time>
      </trkpt>
      <trkpt lat="48.73708" lon="7.04953">
        <ele>245.3</ele>
        <time>2023-11-20T13:26:41Z</time>
      </trkpt>
      <trkpt lat="48.73727" lon="7.04942">
        <ele>245.5</ele>
        <time>2023-11-20T13:26:47Z</time>
      </trkpt>
      <trkpt lat="48.73727" lon="7.04942">
        <ele>245.5</ele>
        <time>2023-11-20T13:26:54Z</time>
      </trkpt>
      <trkpt lat="48.73787" lon="7.0492">
        <ele>247.5</ele>
        <time>2023-11-20T13:27:01Z</time>
      </trkpt>
      <trkpt lat="48.73799" lon="7.04915">
        <ele>248</ele>
        <time>2023-11-20T13:27:10Z</time>
      </trkpt>
      <trkpt lat="48.73819" lon="7.04908">
        <ele>248.2</ele>
        <time>2023-11-20T13:27:19Z</time>
      </trkpt>
      <trkpt lat="48.73839" lon="7.0491">
        <ele>248.2</ele>
        <time>2023-11-20T13:27:27Z</time>
      </trkpt>
      <trkpt lat="48.73856" lon="7.04926">
        <ele>248.1</ele>
        <time>2023-11-20T13:27:34Z</time>
      </trkpt>
      <trkpt lat="48.73874" lon="7.04941">
        <ele>248.1</ele>
        <time>2023-11-20T13:27:41Z</time>
      </trkpt>
      <trkpt lat="48.73888" lon="7.04964">
        <ele>247.7</ele>
        <time>2023-11-20T13:27:48Z</time>
      </trkpt>
      <trkpt lat="48.739" lon="7.04985">
        <ele>247.1</ele>
        <time>2023-11-20T13:27:54Z</time>
      </trkpt>
      <trkpt lat="48.73916" lon="7.05002">
        <ele>246.4</ele>
        <time>2023-11-20T13:28:01Z</time>
      </trkpt>
      <trkpt lat="48.73936" lon="7.05013">
        <ele>246.2</ele>
        <time>2023-11-20T13:28:08Z</time>
      </trkpt>
      <trkpt lat="48.73955" lon="7.05016">
        <ele>246.3</ele>
        <time>2023-11-20T13:28:15Z</time>
      </trkpt>
      <trkpt lat="48.73973" lon="7.05016">
        <ele>246.5</ele>
        <time>2023-11-20T13:28:21Z</time>
      </trkpt>
      <trkpt lat="48.73994" lon="7.05013">
        <ele>246.8</ele>
        <time>2023-11-20T13:28:28Z</time>
      </trkpt>
      <trkpt lat="48.74012" lon="7.05011">
        <ele>246.9</ele>
        <time>2023-11-20T13:28:34Z</time>
      </trkpt>
      <trkpt lat="48.7403" lon="7.05006">
        <ele>247</ele>
        <time>2023-11-20T13:28:40Z</time>
      </trkpt>
      <trkpt lat="48.74048" lon="7.05002">
        <ele>247.1</ele>
        <time>2023-11-20T13:28:46Z</time>
      </trkpt>
      <trkpt lat="48.74068" lon="7.04999">
        <ele>247.4</ele>
        <time>2023-11-20T13:28:53Z</time>
      </trkpt>
      <trkpt lat="48.74087" lon="7.05">
        <ele>247.5</ele>
        <time>2023-11-20T13:28:59Z</time>
      </trkpt>
      <trkpt lat="48.74108" lon="7.04999">
        <ele>247.7</ele>
        <time>2023-11-20T13:29:06Z</time>
      </trkpt>
      <trkpt lat="48.74129" lon="7.05004">
        <ele>247.4</ele>
        <time>2023-11-20T13:29:13Z</time>
      </trkpt>
      <trkpt lat="48.74146" lon="7.0501">
        <ele>246.8</ele>
        <time>2023-11-20T13:29:19Z</time>
      </trkpt>
      <trkpt lat="48.74166" lon="7.05021">
        <ele>246.3</ele>
        <time>2023-11-20T13:29:26Z</time>
      </trkpt>
      <trkpt lat="48.74183" lon="7.05033">
        <ele>246.1</ele>
        <time>2023-11-20T13:29:32Z</time>
      </trkpt>
      <trkpt lat="48.74198" lon="7.05051">
        <ele>246</ele>
        <time>2023-11-20T13:29:39Z</time>
      </trkpt>
      <trkpt lat="48.74213" lon="7.05073">
        <ele>246.1</ele>
        <time>2023-11-20T13:29:46Z</time>
      </trkpt>
      <trkpt lat="48.74227" lon="7.05091">
        <ele>246.3</ele>
        <time>2023-11-20T13:29:52Z</time>
      </trkpt>
      <trkpt lat="48.74245" lon="7.05097">
        <ele>246.7</ele>
        <time>2023-11-20T13:29:59Z</time>
      </trkpt>
      <trkpt lat="48.74265" lon="7.05104">
        <ele>247.1</ele>
        <time>2023-11-20T13:30:07Z</time>
      </trkpt>
      <trkpt lat="48.74281" lon="7.05118">
        <ele>247</ele>
        <time>2023-11-20T13:30:13Z</time>
      </trkpt>
      <trkpt lat="48.74298" lon="7.0513">
        <ele>247</ele>
        <time>2023-11-20T13:30:19Z</time>
      </trkpt>
      <trkpt lat="48.74316" lon="7.05143">
        <ele>247</ele>
        <time>2023-11-20T13:30:26Z</time>
      </trkpt>
      <trkpt lat="48.74335" lon="7.05155">
        <ele>247</ele>
        <time>2023-11-20T13:30:33Z</time>
      </trkpt>
      <trkpt lat="48.74352" lon="7.05169">
        <ele>246.9</ele>
        <time>2023-11-20T13:30:39Z</time>
      </trkpt>
      <trkpt lat="48.74368" lon="7.05189">
        <ele>246.8</ele>
        <time>2023-11-20T13:30:46Z</time>
      </trkpt>
      <trkpt lat="48.74383" lon="7.05208">
        <ele>246.8</ele>
        <time>2023-11-20T13:30:53Z</time>
      </trkpt>
      <trkpt lat="48.74398" lon="7.05226">
        <ele>246.8</ele>
        <time>2023-11-20T13:31:00Z</time>
      </trkpt>
      <trkpt lat="48.74416" lon="7.0524">
        <ele>246.8</ele>
        <time>2023-11-20T13:31:07Z</time>
      </trkpt>
      <trkpt lat="48.74431" lon="7.05254">
        <ele>246.8</ele>
        <time>2023-11-20T13:31:14Z</time>
      </trkpt>
      <trkpt lat="48.74448" lon="7.05267">
        <ele>246.8</ele>
        <time>2023-11-20T13:31:22Z</time>
      </trkpt>
      <trkpt lat="48.74465" lon="7.05278">
        <ele>246.8</ele>
        <time>2023-11-20T13:31:29Z</time>
      </trkpt>
      <trkpt lat="48.74482" lon="7.05292">
        <ele>246.8</ele>
        <time>2023-11-20T13:31:36Z</time>
      </trkpt>
      <trkpt lat="48.74499" lon="7.0531">
        <ele>246.8</ele>
        <time>2023-11-20T13:31:43Z</time>
      </trkpt>
      <trkpt lat="48.74515" lon="7.0533">
        <ele>246.9</ele>
        <time>2023-11-20T13:31:50Z</time>
      </trkpt>
      <trkpt lat="48.74526" lon="7.05353">
        <ele>246.9</ele>
        <time>2023-11-20T13:31:57Z</time>
      </trkpt>
      <trkpt lat="48.74538" lon="7.05377">
        <ele>246.9</ele>
        <time>2023-11-20T13:32:04Z</time>
      </trkpt>
      <trkpt lat="48.74549" lon="7.05401">
        <ele>246.8</ele>
        <time>2023-11-20T13:32:11Z</time>
      </trkpt>
      <trkpt lat="48.74554" lon="7.05428">
        <ele>246.7</ele>
        <time>2023-11-20T13:32:18Z</time>
      </trkpt>
      <trkpt lat="48.74567" lon="7.0545">
        <ele>246.5</ele>
        <time>2023-11-20T13:32:24Z</time>
      </trkpt>
      <trkpt lat="48.74578" lon="7.05475">
        <ele>246.4</ele>
        <time>2023-11-20T13:32:30Z</time>
      </trkpt>
      <trkpt lat="48.7459" lon="7.05497">
        <ele>246.2</ele>
        <time>2023-11-20T13:32:36Z</time>
      </trkpt>
      <trkpt lat="48.74605" lon="7.05517">
        <ele>246</ele>
        <time>2023-11-20T13:32:43Z</time>
      </trkpt>
      <trkpt lat="48.74618" lon="7.05538">
        <ele>245.9</ele>
        <time>2023-11-20T13:32:49Z</time>
      </trkpt>
      <trkpt lat="48.74629" lon="7.05563">
        <ele>245.8</ele>
        <time>2023-11-20T13:32:55Z</time>
      </trkpt>
      <trkpt lat="48.74641" lon="7.05584">
        <ele>245.7</ele>
        <time>2023-11-20T13:33:02Z</time>
      </trkpt>
      <trkpt lat="48.74658" lon="7.05603">
        <ele>245.7</ele>
        <time>2023-11-20T13:33:10Z</time>
      </trkpt>
      <trkpt lat="48.74675" lon="7.05617">
        <ele>245.6</ele>
        <time>2023-11-20T13:33:16Z</time>
      </trkpt>
      <trkpt lat="48.7469" lon="7.05633">
        <ele>245.6</ele>
        <time>2023-11-20T13:33:22Z</time>
      </trkpt>
      <trkpt lat="48.74707" lon="7.05647">
        <ele>245.5</ele>
        <time>2023-11-20T13:33:28Z</time>
      </trkpt>
      <trkpt lat="48.74723" lon="7.0566">
        <ele>245.4</ele>
        <time>2023-11-20T13:33:34Z</time>
      </trkpt>
      <trkpt lat="48.74734" lon="7.05683">
        <ele>245.1</ele>
        <time>2023-11-20T13:33:40Z</time>
      </trkpt>
      <trkpt lat="48.74748" lon="7.05705">
        <ele>245</ele>
        <time>2023-11-20T13:33:47Z</time>
      </trkpt>
      <trkpt lat="48.74762" lon="7.05725">
        <ele>245</ele>
        <time>2023-11-20T13:33:54Z</time>
      </trkpt>
      <trkpt lat="48.74777" lon="7.05746">
        <ele>245.1</ele>
        <time>2023-11-20T13:34:01Z</time>
      </trkpt>
      <trkpt lat="48.74793" lon="7.05737">
        <ele>245.4</ele>
        <time>2023-11-20T13:34:07Z</time>
      </trkpt>
      <trkpt lat="48.74805" lon="7.05716">
        <ele>246.2</ele>
        <time>2023-11-20T13:34:13Z</time>
      </trkpt>
      <trkpt lat="48.74813" lon="7.05689">
        <ele>247.6</ele>
        <time>2023-11-20T13:34:20Z</time>
      </trkpt>
      <trkpt lat="48.74818" lon="7.05677">
        <ele>248.6</ele>
        <time>2023-11-20T13:34:24Z</time>
      </trkpt>
      <trkpt lat="48.74838" lon="7.05686">
        <ele>247.5</ele>
        <time>2023-11-20T13:34:31Z</time>
      </trkpt>
      <trkpt lat="48.74857" lon="7.05678">
        <ele>247</ele>
        <time>2023-11-20T13:34:38Z</time>
      </trkpt>
      <trkpt lat="48.74877" lon="7.05684">
        <ele>246.8</ele>
        <time>2023-11-20T13:34:45Z</time>
      </trkpt>
      <trkpt lat="48.74895" lon="7.05696">
        <ele>246.8</ele>
        <time>2023-11-20T13:34:51Z</time>
      </trkpt>
      <trkpt lat="48.74913" lon="7.05709">
        <ele>246.9</ele>
        <time>2023-11-20T13:34:57Z</time>
      </trkpt>
      <trkpt lat="48.7493" lon="7.05723">
        <ele>247</ele>
        <time>2023-11-20T13:35:03Z</time>
      </trkpt>
      <trkpt lat="48.74948" lon="7.05736">
        <ele>247</ele>
        <time>2023-11-20T13:35:10Z</time>
      </trkpt>
      <trkpt lat="48.74967" lon="7.0575">
        <ele>247.1</ele>
        <time>2023-11-20T13:35:17Z</time>
      </trkpt>
      <trkpt lat="48.74984" lon="7.05768">
        <ele>247.1</ele>
        <time>2023-11-20T13:35:24Z</time>
      </trkpt>
      <trkpt lat="48.75001" lon="7.05784">
        <ele>247</ele>
        <time>2023-11-20T13:35:31Z</time>
      </trkpt>
      <trkpt lat="48.75018" lon="7.05799">
        <ele>246.8</ele>
        <time>2023-11-20T13:35:37Z</time>
      </trkpt>
      <trkpt lat="48.75036" lon="7.05813">
        <ele>246.5</ele>
        <time>2023-11-20T13:35:43Z</time>
      </trkpt>
      <trkpt lat="48.75052" lon="7.05827">
        <ele>246.4</ele>
        <time>2023-11-20T13:35:49Z</time>
      </trkpt>
      <trkpt lat="48.7507" lon="7.05841">
        <ele>246.5</ele>
        <time>2023-11-20T13:35:56Z</time>
      </trkpt>
      <trkpt lat="48.75088" lon="7.05856">
        <ele>246.8</ele>
        <time>2023-11-20T13:36:03Z</time>
      </trkpt>
      <trkpt lat="48.75107" lon="7.05857">
        <ele>247.8</ele>
        <time>2023-11-20T13:36:10Z</time>
      </trkpt>
      <trkpt lat="48.75126" lon="7.05849">
        <ele>249.1</ele>
        <time>2023-11-20T13:36:17Z</time>
      </trkpt>
      <trkpt lat="48.75142" lon="7.05835">
        <ele>250.4</ele>
        <time>2023-11-20T13:36:24Z</time>
      </trkpt>
      <trkpt lat="48.75158" lon="7.05821">
        <ele>251.6</ele>
        <time>2023-11-20T13:36:31Z</time>
      </trkpt>
      <trkpt lat="48.75174" lon="7.05807">
        <ele>252.8</ele>
        <time>2023-11-20T13:36:38Z</time>
      </trkpt>
      <trkpt lat="48.75191" lon="7.058">
        <ele>254</ele>
        <time>2023-11-20T13:36:45Z</time>
      </trkpt>
      <trkpt lat="48.75209" lon="7.05814">
        <ele>254.6</ele>
        <time>2023-11-20T13:36:52Z</time>
      </trkpt>
      <trkpt lat="48.75224" lon="7.05832">
        <ele>254.6</ele>
        <time>2023-11-20T13:36:58Z</time>
      </trkpt>
      <trkpt lat="48.75238" lon="7.05853">
        <ele>254.5</ele>
        <time>2023-11-20T13:37:04Z</time>
      </trkpt>
      <trkpt lat="48.75251" lon="7.05876">
        <ele>254.4</ele>
        <time>2023-11-20T13:37:11Z</time>
      </trkpt>
      <trkpt lat="48.75265" lon="7.059">
        <ele>254.2</ele>
        <time>2023-11-20T13:37:18Z</time>
      </trkpt>
      <trkpt lat="48.75278" lon="7.05921">
        <ele>254.2</ele>
        <time>2023-11-20T13:37:24Z</time>
      </trkpt>
      <trkpt lat="48.7529" lon="7.05942">
        <ele>254.1</ele>
        <time>2023-11-20T13:37:30Z</time>
      </trkpt>
      <trkpt lat="48.75304" lon="7.05966">
        <ele>254.2</ele>
        <time>2023-11-20T13:37:37Z</time>
      </trkpt>
      <trkpt lat="48.75317" lon="7.05988">
        <ele>254.3</ele>
        <time>2023-11-20T13:37:44Z</time>
      </trkpt>
      <trkpt lat="48.75329" lon="7.06008">
        <ele>254.5</ele>
        <time>2023-11-20T13:37:50Z</time>
      </trkpt>
      <trkpt lat="48.75342" lon="7.06028">
        <ele>254.6</ele>
        <time>2023-11-20T13:37:56Z</time>
      </trkpt>
      <trkpt lat="48.75357" lon="7.06047">
        <ele>254.7</ele>
        <time>2023-11-20T13:38:02Z</time>
      </trkpt>
      <trkpt lat="48.75371" lon="7.06066">
        <ele>254.8</ele>
        <time>2023-11-20T13:38:08Z</time>
      </trkpt>
      <trkpt lat="48.75384" lon="7.06085">
        <ele>254.9</ele>
        <time>2023-11-20T13:38:14Z</time>
      </trkpt>
      <trkpt lat="48.75402" lon="7.06102">
        <ele>254.9</ele>
        <time>2023-11-20T13:38:21Z</time>
      </trkpt>
      <trkpt lat="48.75417" lon="7.06119">
        <ele>254.7</ele>
        <time>2023-11-20T13:38:27Z</time>
      </trkpt>
      <trkpt lat="48.75431" lon="7.06138">
        <ele>254.1</ele>
        <time>2023-11-20T13:38:33Z</time>
      </trkpt>
      <trkpt lat="48.75446" lon="7.06158">
        <ele>253.1</ele>
        <time>2023-11-20T13:38:39Z</time>
      </trkpt>
      <trkpt lat="48.75464" lon="7.06174">
        <ele>252.1</ele>
        <time>2023-11-20T13:38:45Z</time>
      </trkpt>
      <trkpt lat="48.7548" lon="7.06186">
        <ele>251.5</ele>
        <time>2023-11-20T13:38:51Z</time>
      </trkpt>
      <trkpt lat="48.75498" lon="7.06195">
        <ele>251</ele>
        <time>2023-11-20T13:38:57Z</time>
      </trkpt>
      <trkpt lat="48.75517" lon="7.06201">
        <ele>250.7</ele>
        <time>2023-11-20T13:39:03Z</time>
      </trkpt>
      <trkpt lat="48.75537" lon="7.06209">
        <ele>250.5</ele>
        <time>2023-11-20T13:39:10Z</time>
      </trkpt>
      <trkpt lat="48.75556" lon="7.06215">
        <ele>250.5</ele>
        <time>2023-11-20T13:39:17Z</time>
      </trkpt>
      <trkpt lat="48.75576" lon="7.06222">
        <ele>250.6</ele>
        <time>2023-11-20T13:39:24Z</time>
      </trkpt>
      <trkpt lat="48.75596" lon="7.06229">
        <ele>250.8</ele>
        <time>2023-11-20T13:39:31Z</time>
      </trkpt>
      <trkpt lat="48.75615" lon="7.06239">
        <ele>251.1</ele>
        <time>2023-11-20T13:39:38Z</time>
      </trkpt>
      <trkpt lat="48.75635" lon="7.06249">
        <ele>251.3</ele>
        <time>2023-11-20T13:39:45Z</time>
      </trkpt>
      <trkpt lat="48.75652" lon="7.0626">
        <ele>251.4</ele>
        <time>2023-11-20T13:39:51Z</time>
      </trkpt>
      <trkpt lat="48.75669" lon="7.06273">
        <ele>251.5</ele>
        <time>2023-11-20T13:39:57Z</time>
      </trkpt>
      <trkpt lat="48.75685" lon="7.06285">
        <ele>251.6</ele>
        <time>2023-11-20T13:40:03Z</time>
      </trkpt>
      <trkpt lat="48.75701" lon="7.06299">
        <ele>251.7</ele>
        <time>2023-11-20T13:40:09Z</time>
      </trkpt>
      <trkpt lat="48.75719" lon="7.06313">
        <ele>251.9</ele>
        <time>2023-11-20T13:40:15Z</time>
      </trkpt>
      <trkpt lat="48.75736" lon="7.06325">
        <ele>252.1</ele>
        <time>2023-11-20T13:40:21Z</time>
      </trkpt>
      <trkpt lat="48.75753" lon="7.06336">
        <ele>252.2</ele>
        <time>2023-11-20T13:40:27Z</time>
      </trkpt>
      <trkpt lat="48.75771" lon="7.06349">
        <ele>252.4</ele>
        <time>2023-11-20T13:40:34Z</time>
      </trkpt>
      <trkpt lat="48.7579" lon="7.06359">
        <ele>252.7</ele>
        <time>2023-11-20T13:40:41Z</time>
      </trkpt>
      <trkpt lat="48.75808" lon="7.06365">
        <ele>253.1</ele>
        <time>2023-11-20T13:40:47Z</time>
      </trkpt>
      <trkpt lat="48.75828" lon="7.06366">
        <ele>253.7</ele>
        <time>2023-11-20T13:40:54Z</time>
      </trkpt>
      <trkpt lat="48.75846" lon="7.06359">
        <ele>254.7</ele>
        <time>2023-11-20T13:41:01Z</time>
      </trkpt>
      <trkpt lat="48.75863" lon="7.06347">
        <ele>255.7</ele>
        <time>2023-11-20T13:41:08Z</time>
      </trkpt>
      <trkpt lat="48.75874" lon="7.06326">
        <ele>257</ele>
        <time>2023-11-20T13:41:16Z</time>
      </trkpt>
      <trkpt lat="48.75871" lon="7.06298">
        <ele>259.8</ele>
        <time>2023-11-20T13:41:23Z</time>
      </trkpt>
      <trkpt lat="48.75866" lon="7.06269">
        <ele>263.1</ele>
        <time>2023-11-20T13:41:31Z</time>
      </trkpt>
      <trkpt lat="48.75864" lon="7.0624">
        <ele>267.3</ele>
        <time>2023-11-20T13:41:40Z</time>
      </trkpt>
      <trkpt lat="48.75869" lon="7.06213">
        <ele>272.3</ele>
        <time>2023-11-20T13:41:51Z</time>
      </trkpt>
      <trkpt lat="48.75868" lon="7.06202">
        <ele>274.3</ele>
        <time>2023-11-20T13:41:57Z</time>
      </trkpt>
      <trkpt lat="48.75865" lon="7.06174">
        <ele>279.1</ele>
        <time>2023-11-20T13:42:12Z</time>
      </trkpt>
      <trkpt lat="48.75858" lon="7.06145">
        <ele>283.5</ele>
        <time>2023-11-20T13:42:25Z</time>
      </trkpt>
      <trkpt lat="48.7586" lon="7.06116">
        <ele>286.1</ele>
        <time>2023-11-20T13:42:36Z</time>
      </trkpt>
      <trkpt lat="48.75848" lon="7.06094">
        <ele>288.8</ele>
        <time>2023-11-20T13:42:45Z</time>
      </trkpt>
      <trkpt lat="48.75834" lon="7.06076">
        <ele>291.2</ele>
        <time>2023-11-20T13:42:54Z</time>
      </trkpt>
      <trkpt lat="48.75824" lon="7.06053">
        <ele>294.8</ele>
        <time>2023-11-20T13:43:03Z</time>
      </trkpt>
      <trkpt lat="48.75818" lon="7.06026">
        <ele>298</ele>
        <time>2023-11-20T13:43:11Z</time>
      </trkpt>
      <trkpt lat="48.75809" lon="7.06">
        <ele>301.3</ele>
        <time>2023-11-20T13:43:20Z</time>
      </trkpt>
      <trkpt lat="48.75798" lon="7.05976">
        <ele>304.6</ele>
        <time>2023-11-20T13:43:29Z</time>
      </trkpt>
      <trkpt lat="48.75784" lon="7.05957">
        <ele>308.1</ele>
        <time>2023-11-20T13:43:37Z</time>
      </trkpt>
      <trkpt lat="48.75768" lon="7.0594">
        <ele>309.4</ele>
        <time>2023-11-20T13:43:45Z</time>
      </trkpt>
      <trkpt lat="48.75753" lon="7.05922">
        <ele>309.8</ele>
        <time>2023-11-20T13:43:54Z</time>
      </trkpt>
      <trkpt lat="48.75738" lon="7.05909">
        <ele>310.2</ele>
        <time>2023-11-20T13:44:03Z</time>
      </trkpt>
      <trkpt lat="48.75718" lon="7.05901">
        <ele>309.2</ele>
        <time>2023-11-20T13:44:11Z</time>
      </trkpt>
      <trkpt lat="48.75698" lon="7.05894">
        <ele>307.6</ele>
        <time>2023-11-20T13:44:19Z</time>
      </trkpt>
      <trkpt lat="48.75679" lon="7.05889">
        <ele>305.7</ele>
        <time>2023-11-20T13:44:26Z</time>
      </trkpt>
      <trkpt lat="48.75658" lon="7.05884">
        <ele>302.6</ele>
        <time>2023-11-20T13:44:32Z</time>
      </trkpt>
      <trkpt lat="48.75639" lon="7.05877">
        <ele>301</ele>
        <time>2023-11-20T13:44:38Z</time>
      </trkpt>
      <trkpt lat="48.7562" lon="7.05866">
        <ele>300.6</ele>
        <time>2023-11-20T13:44:45Z</time>
      </trkpt>
      <trkpt lat="48.75611" lon="7.05853">
        <ele>300.9</ele>
        <time>2023-11-20T13:44:51Z</time>
      </trkpt>
      <trkpt lat="48.75623" lon="7.05832">
        <ele>303.9</ele>
        <time>2023-11-20T13:44:59Z</time>
      </trkpt>
      <trkpt lat="48.75637" lon="7.05809">
        <ele>307.3</ele>
        <time>2023-11-20T13:45:07Z</time>
      </trkpt>
      <trkpt lat="48.7565" lon="7.05787">
        <ele>310.7</ele>
        <time>2023-11-20T13:45:15Z</time>
      </trkpt>
      <trkpt lat="48.75663" lon="7.05765">
        <ele>314.2</ele>
        <time>2023-11-20T13:45:23Z</time>
      </trkpt>
      <trkpt lat="48.75675" lon="7.05743">
        <ele>316.5</ele>
        <time>2023-11-20T13:45:30Z</time>
      </trkpt>
      <trkpt lat="48.75684" lon="7.0572">
        <ele>318.1</ele>
        <time>2023-11-20T13:45:37Z</time>
      </trkpt>
      <trkpt lat="48.75698" lon="7.05697">
        <ele>318.9</ele>
        <time>2023-11-20T13:45:44Z</time>
      </trkpt>
      <trkpt lat="48.7571" lon="7.05675">
        <ele>319</ele>
        <time>2023-11-20T13:45:51Z</time>
      </trkpt>
      <trkpt lat="48.75723" lon="7.05651">
        <ele>319.1</ele>
        <time>2023-11-20T13:45:58Z</time>
      </trkpt>
      <trkpt lat="48.75735" lon="7.05628">
        <ele>319.5</ele>
        <time>2023-11-20T13:46:04Z</time>
      </trkpt>
      <trkpt lat="48.75736" lon="7.0562">
        <ele>319.8</ele>
        <time>2023-11-20T13:46:05Z</time>
      </trkpt>
      <trkpt lat="48.75735" lon="7.05616">
        <ele>320.1</ele>
        <time>2023-11-20T13:46:07Z</time>
      </trkpt>
      <trkpt lat="48.75722" lon="7.05593">
        <ele>321.6</ele>
        <time>2023-11-20T13:46:14Z</time>
      </trkpt>
      <trkpt lat="48.75706" lon="7.05572">
        <ele>322.8</ele>
        <time>2023-11-20T13:46:22Z</time>
      </trkpt>
      <trkpt lat="48.75692" lon="7.05553">
        <ele>323.6</ele>
        <time>2023-11-20T13:46:29Z</time>
      </trkpt>
      <trkpt lat="48.75678" lon="7.05534">
        <ele>323.9</ele>
        <time>2023-11-20T13:46:35Z</time>
      </trkpt>
      <trkpt lat="48.75662" lon="7.05519">
        <ele>324</ele>
        <time>2023-11-20T13:46:41Z</time>
      </trkpt>
      <trkpt lat="48.75649" lon="7.055">
        <ele>324</ele>
        <time>2023-11-20T13:46:48Z</time>
      </trkpt>
      <trkpt lat="48.75635" lon="7.05483">
        <ele>323.9</ele>
        <time>2023-11-20T13:46:54Z</time>
      </trkpt>
      <trkpt lat="48.7562" lon="7.05464">
        <ele>323.5</ele>
        <time>2023-11-20T13:47:00Z</time>
      </trkpt>
      <trkpt lat="48.75604" lon="7.05444">
        <ele>323.1</ele>
        <time>2023-11-20T13:47:06Z</time>
      </trkpt>
      <trkpt lat="48.75592" lon="7.05424">
        <ele>322.7</ele>
        <time>2023-11-20T13:47:12Z</time>
      </trkpt>
      <trkpt lat="48.75579" lon="7.05403">
        <ele>322.1</ele>
        <time>2023-11-20T13:47:18Z</time>
      </trkpt>
      <trkpt lat="48.75566" lon="7.05383">
        <ele>321.3</ele>
        <time>2023-11-20T13:47:24Z</time>
      </trkpt>
      <trkpt lat="48.75552" lon="7.05361">
        <ele>320.6</ele>
        <time>2023-11-20T13:47:30Z</time>
      </trkpt>
      <trkpt lat="48.75538" lon="7.05342">
        <ele>319.9</ele>
        <time>2023-11-20T13:47:36Z</time>
      </trkpt>
      <trkpt lat="48.75522" lon="7.05324">
        <ele>319.1</ele>
        <time>2023-11-20T13:47:42Z</time>
      </trkpt>
      <trkpt lat="48.75507" lon="7.05306">
        <ele>318.3</ele>
        <time>2023-11-20T13:47:48Z</time>
      </trkpt>
      <trkpt lat="48.75493" lon="7.05287">
        <ele>317.5</ele>
        <time>2023-11-20T13:47:54Z</time>
      </trkpt>
      <trkpt lat="48.75477" lon="7.05269">
        <ele>316.4</ele>
        <time>2023-11-20T13:48:00Z</time>
      </trkpt>
      <trkpt lat="48.75461" lon="7.05247">
        <ele>314.4</ele>
        <time>2023-11-20T13:48:06Z</time>
      </trkpt>
      <trkpt lat="48.75448" lon="7.05229">
        <ele>312.8</ele>
        <time>2023-11-20T13:48:11Z</time>
      </trkpt>
      <trkpt lat="48.75434" lon="7.05208">
        <ele>311.2</ele>
        <time>2023-11-20T13:48:17Z</time>
      </trkpt>
      <trkpt lat="48.75419" lon="7.05186">
        <ele>309.4</ele>
        <time>2023-11-20T13:48:23Z</time>
      </trkpt>
      <trkpt lat="48.75405" lon="7.05168">
        <ele>307.8</ele>
        <time>2023-11-20T13:48:28Z</time>
      </trkpt>
      <trkpt lat="48.7539" lon="7.05151">
        <ele>306.3</ele>
        <time>2023-11-20T13:48:33Z</time>
      </trkpt>
      <trkpt lat="48.75376" lon="7.05135">
        <ele>304.7</ele>
        <time>2023-11-20T13:48:38Z</time>
      </trkpt>
      <trkpt lat="48.75359" lon="7.05116">
        <ele>303.1</ele>
        <time>2023-11-20T13:48:44Z</time>
      </trkpt>
      <trkpt lat="48.75343" lon="7.05096">
        <ele>301.4</ele>
        <time>2023-11-20T13:48:50Z</time>
      </trkpt>
      <trkpt lat="48.75328" lon="7.05077">
        <ele>299.9</ele>
        <time>2023-11-20T13:48:56Z</time>
      </trkpt>
      <trkpt lat="48.75313" lon="7.05057">
        <ele>298.6</ele>
        <time>2023-11-20T13:49:02Z</time>
      </trkpt>
      <trkpt lat="48.75298" lon="7.05038">
        <ele>297.2</ele>
        <time>2023-11-20T13:49:08Z</time>
      </trkpt>
      <trkpt lat="48.75283" lon="7.0502">
        <ele>295.9</ele>
        <time>2023-11-20T13:49:14Z</time>
      </trkpt>
      <trkpt lat="48.75269" lon="7.05001">
        <ele>294.5</ele>
        <time>2023-11-20T13:49:20Z</time>
      </trkpt>
      <trkpt lat="48.75255" lon="7.04979">
        <ele>293</ele>
        <time>2023-11-20T13:49:26Z</time>
      </trkpt>
      <trkpt lat="48.7525" lon="7.0495">
        <ele>294</ele>
        <time>2023-11-20T13:49:32Z</time>
      </trkpt>
      <trkpt lat="48.75243" lon="7.04922">
        <ele>295.1</ele>
        <time>2023-11-20T13:49:39Z</time>
      </trkpt>
      <trkpt lat="48.75237" lon="7.04895">
        <ele>296.3</ele>
        <time>2023-11-20T13:49:46Z</time>
      </trkpt>
      <trkpt lat="48.75235" lon="7.04889">
        <ele>296.9</ele>
        <time>2023-11-20T13:49:47Z</time>
      </trkpt>
      <trkpt lat="48.75225" lon="7.04866">
        <ele>297.9</ele>
        <time>2023-11-20T13:49:55Z</time>
      </trkpt>
      <trkpt lat="48.75215" lon="7.0484">
        <ele>299.9</ele>
        <time>2023-11-20T13:50:03Z</time>
      </trkpt>
      <trkpt lat="48.75207" lon="7.04812">
        <ele>301.5</ele>
        <time>2023-11-20T13:50:11Z</time>
      </trkpt>
      <trkpt lat="48.75197" lon="7.04784">
        <ele>302.7</ele>
        <time>2023-11-20T13:50:19Z</time>
      </trkpt>
      <trkpt lat="48.75188" lon="7.04758">
        <ele>304</ele>
        <time>2023-11-20T13:50:27Z</time>
      </trkpt>
      <trkpt lat="48.75176" lon="7.04737">
        <ele>305</ele>
        <time>2023-11-20T13:50:34Z</time>
      </trkpt>
      <trkpt lat="48.75158" lon="7.04727">
        <ele>304.2</ele>
        <time>2023-11-20T13:50:41Z</time>
      </trkpt>
      <trkpt lat="48.75138" lon="7.04722">
        <ele>302.1</ele>
        <time>2023-11-20T13:50:48Z</time>
      </trkpt>
      <trkpt lat="48.75125" lon="7.04702">
        <ele>302.4</ele>
        <time>2023-11-20T13:50:55Z</time>
      </trkpt>
      <trkpt lat="48.7512" lon="7.04675">
        <ele>304.2</ele>
        <time>2023-11-20T13:51:02Z</time>
      </trkpt>
      <trkpt lat="48.75116" lon="7.04648">
        <ele>306.3</ele>
        <time>2023-11-20T13:51:09Z</time>
      </trkpt>
      <trkpt lat="48.75108" lon="7.04623">
        <ele>307.1</ele>
        <time>2023-11-20T13:51:16Z</time>
      </trkpt>
      <trkpt lat="48.75106" lon="7.04594">
        <ele>309</ele>
        <time>2023-11-20T13:51:24Z</time>
      </trkpt>
      <trkpt lat="48.75102" lon="7.04567">
        <ele>310.7</ele>
        <time>2023-11-20T13:51:31Z</time>
      </trkpt>
      <trkpt lat="48.751" lon="7.04537">
        <ele>313.7</ele>
        <time>2023-11-20T13:51:38Z</time>
      </trkpt>
      <trkpt lat="48.751" lon="7.04507">
        <ele>316.2</ele>
        <time>2023-11-20T13:51:46Z</time>
      </trkpt>
      <trkpt lat="48.75097" lon="7.04478">
        <ele>318.4</ele>
        <time>2023-11-20T13:51:53Z</time>
      </trkpt>
      <trkpt lat="48.75094" lon="7.04448">
        <ele>320.6</ele>
        <time>2023-11-20T13:52:00Z</time>
      </trkpt>
      <trkpt lat="48.75082" lon="7.04425">
        <ele>321.9</ele>
        <time>2023-11-20T13:52:05Z</time>
      </trkpt>
      <trkpt lat="48.75067" lon="7.04402">
        <ele>321.7</ele>
        <time>2023-11-20T13:52:11Z</time>
      </trkpt>
      <trkpt lat="48.75058" lon="7.04378">
        <ele>321.5</ele>
        <time>2023-11-20T13:52:17Z</time>
      </trkpt>
      <trkpt lat="48.75045" lon="7.04358">
        <ele>321.9</ele>
        <time>2023-11-20T13:52:24Z</time>
      </trkpt>
      <trkpt lat="48.75031" lon="7.0434">
        <ele>322.5</ele>
        <time>2023-11-20T13:52:31Z</time>
      </trkpt>
      <trkpt lat="48.75019" lon="7.04316">
        <ele>323.3</ele>
        <time>2023-11-20T13:52:38Z</time>
      </trkpt>
      <trkpt lat="48.75003" lon="7.04296">
        <ele>324.5</ele>
        <time>2023-11-20T13:52:46Z</time>
      </trkpt>
      <trkpt lat="48.7499" lon="7.04274">
        <ele>324.4</ele>
        <time>2023-11-20T13:52:53Z</time>
      </trkpt>
      <trkpt lat="48.74985" lon="7.0427">
        <ele>324.6</ele>
        <time>2023-11-20T13:52:54Z</time>
      </trkpt>
      <trkpt lat="48.74967" lon="7.04261">
        <ele>321.7</ele>
        <time>2023-11-20T13:53:02Z</time>
      </trkpt>
      <trkpt lat="48.7495" lon="7.04248">
        <ele>319.5</ele>
        <time>2023-11-20T13:53:08Z</time>
      </trkpt>
      <trkpt lat="48.74937" lon="7.04229">
        <ele>317.7</ele>
        <time>2023-11-20T13:53:15Z</time>
      </trkpt>
      <trkpt lat="48.74933" lon="7.04201">
        <ele>318</ele>
        <time>2023-11-20T13:53:23Z</time>
      </trkpt>
      <trkpt lat="48.74935" lon="7.04172">
        <ele>318.4</ele>
        <time>2023-11-20T13:53:30Z</time>
      </trkpt>
      <trkpt lat="48.74942" lon="7.04146">
        <ele>318.7</ele>
        <time>2023-11-20T13:53:36Z</time>
      </trkpt>
      <trkpt lat="48.74947" lon="7.04117">
        <ele>319.2</ele>
        <time>2023-11-20T13:53:44Z</time>
      </trkpt>
      <trkpt lat="48.74954" lon="7.04089">
        <ele>319.8</ele>
        <time>2023-11-20T13:53:51Z</time>
      </trkpt>
      <trkpt lat="48.74962" lon="7.04065">
        <ele>320.4</ele>
        <time>2023-11-20T13:53:57Z</time>
      </trkpt>
      <trkpt lat="48.74968" lon="7.04039">
        <ele>321</ele>
        <time>2023-11-20T13:54:04Z</time>
      </trkpt>
      <trkpt lat="48.74969" lon="7.04007">
        <ele>321.4</ele>
        <time>2023-11-20T13:54:11Z</time>
      </trkpt>
      <trkpt lat="48.74967" lon="7.03994">
        <ele>321.3</ele>
        <time>2023-11-20T13:54:12Z</time>
      </trkpt>
      <trkpt lat="48.74958" lon="7.03966">
        <ele>320.8</ele>
        <time>2023-11-20T13:54:19Z</time>
      </trkpt>
      <trkpt lat="48.74946" lon="7.03942">
        <ele>320.4</ele>
        <time>2023-11-20T13:54:25Z</time>
      </trkpt>
      <trkpt lat="48.74932" lon="7.03918">
        <ele>320.1</ele>
        <time>2023-11-20T13:54:31Z</time>
      </trkpt>
      <trkpt lat="48.7492" lon="7.03897">
        <ele>319.8</ele>
        <time>2023-11-20T13:54:37Z</time>
      </trkpt>
      <trkpt lat="48.7491" lon="7.03873">
        <ele>319.6</ele>
        <time>2023-11-20T13:54:43Z</time>
      </trkpt>
      <trkpt lat="48.74903" lon="7.03845">
        <ele>319.2</ele>
        <time>2023-11-20T13:54:49Z</time>
      </trkpt>
      <trkpt lat="48.74894" lon="7.03817">
        <ele>318.7</ele>
        <time>2023-11-20T13:54:55Z</time>
      </trkpt>
      <trkpt lat="48.74885" lon="7.0379">
        <ele>318.3</ele>
        <time>2023-11-20T13:55:01Z</time>
      </trkpt>
      <trkpt lat="48.74877" lon="7.03765">
        <ele>317.8</ele>
        <time>2023-11-20T13:55:07Z</time>
      </trkpt>
      <trkpt lat="48.7487" lon="7.03739">
        <ele>317.4</ele>
        <time>2023-11-20T13:55:13Z</time>
      </trkpt>
      <trkpt lat="48.74863" lon="7.0371">
        <ele>317</ele>
        <time>2023-11-20T13:55:20Z</time>
      </trkpt>
      <trkpt lat="48.74857" lon="7.03685">
        <ele>316.5</ele>
        <time>2023-11-20T13:55:26Z</time>
      </trkpt>
      <trkpt lat="48.74846" lon="7.03658">
        <ele>315.9</ele>
        <time>2023-11-20T13:55:33Z</time>
      </trkpt>
      <trkpt lat="48.74831" lon="7.0364">
        <ele>315.5</ele>
        <time>2023-11-20T13:55:39Z</time>
      </trkpt>
      <trkpt lat="48.74812" lon="7.03629">
        <ele>315.7</ele>
        <time>2023-11-20T13:55:45Z</time>
      </trkpt>
      <trkpt lat="48.74802" lon="7.03612">
        <ele>315.7</ele>
        <time>2023-11-20T13:55:50Z</time>
      </trkpt>
      <trkpt lat="48.74807" lon="7.03582">
        <ele>315.5</ele>
        <time>2023-11-20T13:55:56Z</time>
      </trkpt>
      <trkpt lat="48.74809" lon="7.03552">
        <ele>315.2</ele>
        <time>2023-11-20T13:56:02Z</time>
      </trkpt>
      <trkpt lat="48.74809" lon="7.03521">
        <ele>314.5</ele>
        <time>2023-11-20T13:56:08Z</time>
      </trkpt>
      <trkpt lat="48.74812" lon="7.03492">
        <ele>313.9</ele>
        <time>2023-11-20T13:56:14Z</time>
      </trkpt>
      <trkpt lat="48.74817" lon="7.03463">
        <ele>313.4</ele>
        <time>2023-11-20T13:56:20Z</time>
      </trkpt>
      <trkpt lat="48.74821" lon="7.03434">
        <ele>313.2</ele>
        <time>2023-11-20T13:56:26Z</time>
      </trkpt>
      <trkpt lat="48.74822" lon="7.03406">
        <ele>313.5</ele>
        <time>2023-11-20T13:56:32Z</time>
      </trkpt>
      <trkpt lat="48.74822" lon="7.03377">
        <ele>314.2</ele>
        <time>2023-11-20T13:56:38Z</time>
      </trkpt>
      <trkpt lat="48.74827" lon="7.03347">
        <ele>315</ele>
        <time>2023-11-20T13:56:45Z</time>
      </trkpt>
      <trkpt lat="48.74833" lon="7.03317">
        <ele>316.1</ele>
        <time>2023-11-20T13:56:52Z</time>
      </trkpt>
      <trkpt lat="48.74833" lon="7.03286">
        <ele>317.3</ele>
        <time>2023-11-20T13:56:58Z</time>
      </trkpt>
      <trkpt lat="48.74836" lon="7.03258">
        <ele>318</ele>
        <time>2023-11-20T13:57:04Z</time>
      </trkpt>
      <trkpt lat="48.74829" lon="7.03231">
        <ele>318.1</ele>
        <time>2023-11-20T13:57:09Z</time>
      </trkpt>
      <trkpt lat="48.74826" lon="7.03202">
        <ele>318.1</ele>
        <time>2023-11-20T13:57:15Z</time>
      </trkpt>
      <trkpt lat="48.74828" lon="7.03172">
        <ele>317.8</ele>
        <time>2023-11-20T13:57:21Z</time>
      </trkpt>
      <trkpt lat="48.74834" lon="7.03145">
        <ele>317.3</ele>
        <time>2023-11-20T13:57:27Z</time>
      </trkpt>
      <trkpt lat="48.74838" lon="7.03116">
        <ele>316.7</ele>
        <time>2023-11-20T13:57:33Z</time>
      </trkpt>
      <trkpt lat="48.74838" lon="7.03085">
        <ele>316.2</ele>
        <time>2023-11-20T13:57:39Z</time>
      </trkpt>
      <trkpt lat="48.74846" lon="7.03058">
        <ele>315.6</ele>
        <time>2023-11-20T13:57:45Z</time>
      </trkpt>
      <trkpt lat="48.74845" lon="7.03025">
        <ele>314.8</ele>
        <time>2023-11-20T13:57:51Z</time>
      </trkpt>
      <trkpt lat="48.74842" lon="7.02998">
        <ele>314.2</ele>
        <time>2023-11-20T13:57:56Z</time>
      </trkpt>
      <trkpt lat="48.74843" lon="7.02968">
        <ele>313.2</ele>
        <time>2023-11-20T13:58:02Z</time>
      </trkpt>
      <trkpt lat="48.74842" lon="7.02935">
        <ele>312</ele>
        <time>2023-11-20T13:58:08Z</time>
      </trkpt>
      <trkpt lat="48.74836" lon="7.02908">
        <ele>311.5</ele>
        <time>2023-11-20T13:58:13Z</time>
      </trkpt>
      <trkpt lat="48.74838" lon="7.02878">
        <ele>311</ele>
        <time>2023-11-20T13:58:19Z</time>
      </trkpt>
      <trkpt lat="48.74838" lon="7.02848">
        <ele>310.4</ele>
        <time>2023-11-20T13:58:25Z</time>
      </trkpt>
      <trkpt lat="48.7484" lon="7.02819">
        <ele>309.7</ele>
        <time>2023-11-20T13:58:31Z</time>
      </trkpt>
      <trkpt lat="48.74839" lon="7.0279">
        <ele>309</ele>
        <time>2023-11-20T13:58:37Z</time>
      </trkpt>
      <trkpt lat="48.74835" lon="7.02763">
        <ele>308.2</ele>
        <time>2023-11-20T13:58:42Z</time>
      </trkpt>
      <trkpt lat="48.74835" lon="7.02733">
        <ele>307.3</ele>
        <time>2023-11-20T13:58:47Z</time>
      </trkpt>
      <trkpt lat="48.74836" lon="7.02702">
        <ele>306.5</ele>
        <time>2023-11-20T13:58:53Z</time>
      </trkpt>
      <trkpt lat="48.74831" lon="7.02695">
        <ele>306.4</ele>
        <time>2023-11-20T13:58:54Z</time>
      </trkpt>
      <trkpt lat="48.74812" lon="7.0269">
        <ele>306.7</ele>
        <time>2023-11-20T13:59:01Z</time>
      </trkpt>
      <trkpt lat="48.74794" lon="7.02696">
        <ele>307.1</ele>
        <time>2023-11-20T13:59:07Z</time>
      </trkpt>
      <trkpt lat="48.74774" lon="7.02704">
        <ele>307.6</ele>
        <time>2023-11-20T13:59:14Z</time>
      </trkpt>
      <trkpt lat="48.74758" lon="7.02722">
        <ele>308.3</ele>
        <time>2023-11-20T13:59:21Z</time>
      </trkpt>
      <trkpt lat="48.74742" lon="7.02737">
        <ele>308.9</ele>
        <time>2023-11-20T13:59:27Z</time>
      </trkpt>
      <trkpt lat="48.74723" lon="7.02747">
        <ele>309.1</ele>
        <time>2023-11-20T13:59:34Z</time>
      </trkpt>
      <trkpt lat="48.74703" lon="7.02735">
        <ele>309</ele>
        <time>2023-11-20T13:59:41Z</time>
      </trkpt>
      <trkpt lat="48.74698" lon="7.02708">
        <ele>308.7</ele>
        <time>2023-11-20T13:59:48Z</time>
      </trkpt>
      <trkpt lat="48.74701" lon="7.0268">
        <ele>308.5</ele>
        <time>2023-11-20T13:59:55Z</time>
      </trkpt>
      <trkpt lat="48.74695" lon="7.02652">
        <ele>308.6</ele>
        <time>2023-11-20T14:00:01Z</time>
      </trkpt>
      <trkpt lat="48.74688" lon="7.02626">
        <ele>308.8</ele>
        <time>2023-11-20T14:00:07Z</time>
      </trkpt>
      <trkpt lat="48.74681" lon="7.02601">
        <ele>309.1</ele>
        <time>2023-11-20T14:00:13Z</time>
      </trkpt>
      <trkpt lat="48.74664" lon="7.02585">
        <ele>309.4</ele>
        <time>2023-11-20T14:00:19Z</time>
      </trkpt>
      <trkpt lat="48.74649" lon="7.02601">
        <ele>310.2</ele>
        <time>2023-11-20T14:00:26Z</time>
      </trkpt>
      <trkpt lat="48.74641" lon="7.02627">
        <ele>310.4</ele>
        <time>2023-11-20T14:00:33Z</time>
      </trkpt>
      <trkpt lat="48.74632" lon="7.02654">
        <ele>310.5</ele>
        <time>2023-11-20T14:00:39Z</time>
      </trkpt>
      <trkpt lat="48.74624" lon="7.02679">
        <ele>310.7</ele>
        <time>2023-11-20T14:00:45Z</time>
      </trkpt>
      <trkpt lat="48.74608" lon="7.02695">
        <ele>311</ele>
        <time>2023-11-20T14:00:51Z</time>
      </trkpt>
      <trkpt lat="48.74594" lon="7.02713">
        <ele>311.3</ele>
        <time>2023-11-20T14:00:57Z</time>
      </trkpt>
      <trkpt lat="48.74584" lon="7.02737">
        <ele>311.9</ele>
        <time>2023-11-20T14:01:04Z</time>
      </trkpt>
      <trkpt lat="48.74574" lon="7.02763">
        <ele>312.6</ele>
        <time>2023-11-20T14:01:10Z</time>
      </trkpt>
      <trkpt lat="48.74566" lon="7.02789">
        <ele>313.2</ele>
        <time>2023-11-20T14:01:16Z</time>
      </trkpt>
      <trkpt lat="48.74557" lon="7.02813">
        <ele>313.8</ele>
        <time>2023-11-20T14:01:23Z</time>
      </trkpt>
      <trkpt lat="48.7455" lon="7.02842">
        <ele>314.4</ele>
        <time>2023-11-20T14:01:29Z</time>
      </trkpt>
      <trkpt lat="48.7454" lon="7.02867">
        <ele>315</ele>
        <time>2023-11-20T14:01:36Z</time>
      </trkpt>
      <trkpt lat="48.74523" lon="7.02885">
        <ele>315.7</ele>
        <time>2023-11-20T14:01:43Z</time>
      </trkpt>
      <trkpt lat="48.74511" lon="7.02911">
        <ele>316.6</ele>
        <time>2023-11-20T14:01:50Z</time>
      </trkpt>
      <trkpt lat="48.74507" lon="7.02937">
        <ele>317.5</ele>
        <time>2023-11-20T14:01:56Z</time>
      </trkpt>
      <trkpt lat="48.74502" lon="7.02947">
        <ele>317.8</ele>
        <time>2023-11-20T14:01:59Z</time>
      </trkpt>
      <trkpt lat="48.74484" lon="7.02961">
        <ele>318.5</ele>
        <time>2023-11-20T14:02:07Z</time>
      </trkpt>
      <trkpt lat="48.74471" lon="7.0298">
        <ele>319.2</ele>
        <time>2023-11-20T14:02:13Z</time>
      </trkpt>
      <trkpt lat="48.74466" lon="7.03008">
        <ele>320</ele>
        <time>2023-11-20T14:02:20Z</time>
      </trkpt>
      <trkpt lat="48.74472" lon="7.03034">
        <ele>320</ele>
        <time>2023-11-20T14:02:26Z</time>
      </trkpt>
      <trkpt lat="48.74479" lon="7.03059">
        <ele>319.9</ele>
        <time>2023-11-20T14:02:32Z</time>
      </trkpt>
      <trkpt lat="48.74487" lon="7.03085">
        <ele>320</ele>
        <time>2023-11-20T14:02:38Z</time>
      </trkpt>
      <trkpt lat="48.74491" lon="7.03114">
        <ele>320</ele>
        <time>2023-11-20T14:02:44Z</time>
      </trkpt>
      <trkpt lat="48.74495" lon="7.03144">
        <ele>320.1</ele>
        <time>2023-11-20T14:02:50Z</time>
      </trkpt>
      <trkpt lat="48.74502" lon="7.0317">
        <ele>320</ele>
        <time>2023-11-20T14:02:56Z</time>
      </trkpt>
      <trkpt lat="48.7451" lon="7.03198">
        <ele>320</ele>
        <time>2023-11-20T14:03:02Z</time>
      </trkpt>
      <trkpt lat="48.74514" lon="7.03229">
        <ele>319.9</ele>
        <time>2023-11-20T14:03:08Z</time>
      </trkpt>
      <trkpt lat="48.7452" lon="7.03257">
        <ele>319.6</ele>
        <time>2023-11-20T14:03:14Z</time>
      </trkpt>
      <trkpt lat="48.74521" lon="7.03285">
        <ele>319.1</ele>
        <time>2023-11-20T14:03:20Z</time>
      </trkpt>
      <trkpt lat="48.74521" lon="7.03316">
        <ele>318.4</ele>
        <time>2023-11-20T14:03:26Z</time>
      </trkpt>
      <trkpt lat="48.74521" lon="7.03348">
        <ele>317.6</ele>
        <time>2023-11-20T14:03:32Z</time>
      </trkpt>
      <trkpt lat="48.74523" lon="7.03377">
        <ele>316.7</ele>
        <time>2023-11-20T14:03:38Z</time>
      </trkpt>
      <trkpt lat="48.74514" lon="7.03404">
        <ele>315.6</ele>
        <time>2023-11-20T14:03:44Z</time>
      </trkpt>
      <trkpt lat="48.74512" lon="7.03412">
        <ele>315.2</ele>
        <time>2023-11-20T14:03:46Z</time>
      </trkpt>
      <trkpt lat="48.74515" lon="7.03444">
        <ele>314</ele>
        <time>2023-11-20T14:03:52Z</time>
      </trkpt>
      <trkpt lat="48.74517" lon="7.03476">
        <ele>312.2</ele>
        <time>2023-11-20T14:03:58Z</time>
      </trkpt>
      <trkpt lat="48.7452" lon="7.03508">
        <ele>310.2</ele>
        <time>2023-11-20T14:04:04Z</time>
      </trkpt>
      <trkpt lat="48.74524" lon="7.03536">
        <ele>308.6</ele>
        <time>2023-11-20T14:04:09Z</time>
      </trkpt>
      <trkpt lat="48.74526" lon="7.03563">
        <ele>307.2</ele>
        <time>2023-11-20T14:04:14Z</time>
      </trkpt>
      <trkpt lat="48.74531" lon="7.03595">
        <ele>305.6</ele>
        <time>2023-11-20T14:04:20Z</time>
      </trkpt>
      <trkpt lat="48.74537" lon="7.03624">
        <ele>303.9</ele>
        <time>2023-11-20T14:04:26Z</time>
      </trkpt>
      <trkpt lat="48.74541" lon="7.03651">
        <ele>302.8</ele>
        <time>2023-11-20T14:04:32Z</time>
      </trkpt>
      <trkpt lat="48.74553" lon="7.03673">
        <ele>300.4</ele>
        <time>2023-11-20T14:04:38Z</time>
      </trkpt>
      <trkpt lat="48.74561" lon="7.03702">
        <ele>298.4</ele>
        <time>2023-11-20T14:04:44Z</time>
      </trkpt>
      <trkpt lat="48.74568" lon="7.03731">
        <ele>296.6</ele>
        <time>2023-11-20T14:04:50Z</time>
      </trkpt>
      <trkpt lat="48.74574" lon="7.03761">
        <ele>295</ele>
        <time>2023-11-20T14:04:56Z</time>
      </trkpt>
      <trkpt lat="48.74579" lon="7.03792">
        <ele>293.6</ele>
        <time>2023-11-20T14:05:02Z</time>
      </trkpt>
      <trkpt lat="48.74585" lon="7.03823">
        <ele>292.4</ele>
        <time>2023-11-20T14:05:08Z</time>
      </trkpt>
      <trkpt lat="48.74592" lon="7.03853">
        <ele>291.5</ele>
        <time>2023-11-20T14:05:14Z</time>
      </trkpt>
      <trkpt lat="48.74598" lon="7.03882">
        <ele>290.8</ele>
        <time>2023-11-20T14:05:20Z</time>
      </trkpt>
      <trkpt lat="48.74601" lon="7.03912">
        <ele>290.2</ele>
        <time>2023-11-20T14:05:26Z</time>
      </trkpt>
      <trkpt lat="48.74601" lon="7.03942">
        <ele>289.6</ele>
        <time>2023-11-20T14:05:32Z</time>
      </trkpt>
      <trkpt lat="48.746" lon="7.03972">
        <ele>288.8</ele>
        <time>2023-11-20T14:05:38Z</time>
      </trkpt>
      <trkpt lat="48.74598" lon="7.04001">
        <ele>287.8</ele>
        <time>2023-11-20T14:05:44Z</time>
      </trkpt>
      <trkpt lat="48.74593" lon="7.04031">
        <ele>286.8</ele>
        <time>2023-11-20T14:05:50Z</time>
      </trkpt>
      <trkpt lat="48.74588" lon="7.04059">
        <ele>285.9</ele>
        <time>2023-11-20T14:05:56Z</time>
      </trkpt>
      <trkpt lat="48.74584" lon="7.04088">
        <ele>285.1</ele>
        <time>2023-11-20T14:06:02Z</time>
      </trkpt>
      <trkpt lat="48.74579" lon="7.04117">
        <ele>284.3</ele>
        <time>2023-11-20T14:06:08Z</time>
      </trkpt>
      <trkpt lat="48.74577" lon="7.04146">
        <ele>283.7</ele>
        <time>2023-11-20T14:06:14Z</time>
      </trkpt>
      <trkpt lat="48.74576" lon="7.04176">
        <ele>283.1</ele>
        <time>2023-11-20T14:06:20Z</time>
      </trkpt>
      <trkpt lat="48.74576" lon="7.04203">
        <ele>282.7</ele>
        <time>2023-11-20T14:06:26Z</time>
      </trkpt>
      <trkpt lat="48.74574" lon="7.04231">
        <ele>282</ele>
        <time>2023-11-20T14:06:32Z</time>
      </trkpt>
      <trkpt lat="48.74574" lon="7.04259">
        <ele>281.3</ele>
        <time>2023-11-20T14:06:38Z</time>
      </trkpt>
      <trkpt lat="48.74573" lon="7.04286">
        <ele>280.5</ele>
        <time>2023-11-20T14:06:44Z</time>
      </trkpt>
      <trkpt lat="48.74574" lon="7.04315">
        <ele>279.5</ele>
        <time>2023-11-20T14:06:50Z</time>
      </trkpt>
      <trkpt lat="48.74574" lon="7.04343">
        <ele>278.4</ele>
        <time>2023-11-20T14:06:56Z</time>
      </trkpt>
      <trkpt lat="48.74577" lon="7.04371">
        <ele>277.2</ele>
        <time>2023-11-20T14:07:02Z</time>
      </trkpt>
      <trkpt lat="48.7458" lon="7.044">
        <ele>276</ele>
        <time>2023-11-20T14:07:08Z</time>
      </trkpt>
      <trkpt lat="48.74585" lon="7.04429">
        <ele>275</ele>
        <time>2023-11-20T14:07:14Z</time>
      </trkpt>
      <trkpt lat="48.74589" lon="7.04456">
        <ele>274.2</ele>
        <time>2023-11-20T14:07:20Z</time>
      </trkpt>
      <trkpt lat="48.74593" lon="7.04483">
        <ele>273.3</ele>
        <time>2023-11-20T14:07:26Z</time>
      </trkpt>
      <trkpt lat="48.74596" lon="7.04513">
        <ele>272.4</ele>
        <time>2023-11-20T14:07:33Z</time>
      </trkpt>
      <trkpt lat="48.74598" lon="7.04542">
        <ele>271.4</ele>
        <time>2023-11-20T14:07:39Z</time>
      </trkpt>
      <trkpt lat="48.74596" lon="7.04572">
        <ele>270.5</ele>
        <time>2023-11-20T14:07:45Z</time>
      </trkpt>
      <trkpt lat="48.74593" lon="7.04602">
        <ele>269.9</ele>
        <time>2023-11-20T14:07:51Z</time>
      </trkpt>
      <trkpt lat="48.74593" lon="7.04632">
        <ele>269.4</ele>
        <time>2023-11-20T14:07:57Z</time>
      </trkpt>
      <trkpt lat="48.74593" lon="7.04662">
        <ele>269.1</ele>
        <time>2023-11-20T14:08:03Z</time>
      </trkpt>
      <trkpt lat="48.74594" lon="7.0469">
        <ele>268.8</ele>
        <time>2023-11-20T14:08:09Z</time>
      </trkpt>
      <trkpt lat="48.74596" lon="7.0472">
        <ele>268.6</ele>
        <time>2023-11-20T14:08:15Z</time>
      </trkpt>
      <trkpt lat="48.74599" lon="7.04749">
        <ele>268.6</ele>
        <time>2023-11-20T14:08:21Z</time>
      </trkpt>
      <trkpt lat="48.74601" lon="7.04777">
        <ele>268.7</ele>
        <time>2023-11-20T14:08:27Z</time>
      </trkpt>
      <trkpt lat="48.74606" lon="7.04805">
        <ele>268.6</ele>
        <time>2023-11-20T14:08:33Z</time>
      </trkpt>
      <trkpt lat="48.74606" lon="7.04833">
        <ele>268.2</ele>
        <time>2023-11-20T14:08:39Z</time>
      </trkpt>
      <trkpt lat="48.74589" lon="7.04852">
        <ele>266.6</ele>
        <time>2023-11-20T14:08:45Z</time>
      </trkpt>
      <trkpt lat="48.7457" lon="7.04864">
        <ele>265.4</ele>
        <time>2023-11-20T14:08:51Z</time>
      </trkpt>
      <trkpt lat="48.74551" lon="7.04879">
        <ele>263.5</ele>
        <time>2023-11-20T14:08:57Z</time>
      </trkpt>
      <trkpt lat="48.74533" lon="7.04893">
        <ele>261.5</ele>
        <time>2023-11-20T14:09:03Z</time>
      </trkpt>
      <trkpt lat="48.74514" lon="7.04906">
        <ele>259.5</ele>
        <time>2023-11-20T14:09:09Z</time>
      </trkpt>
      <trkpt lat="48.74496" lon="7.04923">
        <ele>257.5</ele>
        <time>2023-11-20T14:09:15Z</time>
      </trkpt>
      <trkpt lat="48.74479" lon="7.04938">
        <ele>256.6</ele>
        <time>2023-11-20T14:09:21Z</time>
      </trkpt>
      <trkpt lat="48.74462" lon="7.04956">
        <ele>254.9</ele>
        <time>2023-11-20T14:09:27Z</time>
      </trkpt>
      <trkpt lat="48.74444" lon="7.04974">
        <ele>253.3</ele>
        <time>2023-11-20T14:09:33Z</time>
      </trkpt>
      <trkpt lat="48.74427" lon="7.04991">
        <ele>252</ele>
        <time>2023-11-20T14:09:39Z</time>
      </trkpt>
      <trkpt lat="48.7441" lon="7.05007">
        <ele>250.8</ele>
        <time>2023-11-20T14:09:45Z</time>
      </trkpt>
      <trkpt lat="48.74392" lon="7.05023">
        <ele>249.8</ele>
        <time>2023-11-20T14:09:51Z</time>
      </trkpt>
      <trkpt lat="48.74377" lon="7.05039">
        <ele>249</ele>
        <time>2023-11-20T14:09:57Z</time>
      </trkpt>
      <trkpt lat="48.74359" lon="7.05054">
        <ele>248.4</ele>
        <time>2023-11-20T14:10:03Z</time>
      </trkpt>
      <trkpt lat="48.74344" lon="7.05068">
        <ele>247.9</ele>
        <time>2023-11-20T14:10:09Z</time>
      </trkpt>
      <trkpt lat="48.74326" lon="7.05084">
        <ele>247.6</ele>
        <time>2023-11-20T14:10:16Z</time>
      </trkpt>
      <trkpt lat="48.74308" lon="7.0509">
        <ele>247.4</ele>
        <time>2023-11-20T14:10:22Z</time>
      </trkpt>
      <trkpt lat="48.74288" lon="7.05092">
        <ele>247.1</ele>
        <time>2023-11-20T14:10:29Z</time>
      </trkpt>
      <trkpt lat="48.7427" lon="7.05094">
        <ele>247.1</ele>
        <time>2023-11-20T14:10:35Z</time>
      </trkpt>
      <trkpt lat="48.74251" lon="7.05098">
        <ele>246.9</ele>
        <time>2023-11-20T14:10:42Z</time>
      </trkpt>
      <trkpt lat="48.74233" lon="7.05096">
        <ele>246.4</ele>
        <time>2023-11-20T14:10:48Z</time>
      </trkpt>
      <trkpt lat="48.74216" lon="7.05087">
        <ele>246.2</ele>
        <time>2023-11-20T14:10:54Z</time>
      </trkpt>
      <trkpt lat="48.74201" lon="7.05067">
        <ele>246</ele>
        <time>2023-11-20T14:11:00Z</time>
      </trkpt>
      <trkpt lat="48.74186" lon="7.05046">
        <ele>246</ele>
        <time>2023-11-20T14:11:06Z</time>
      </trkpt>
      <trkpt lat="48.74169" lon="7.0503">
        <ele>246.2</ele>
        <time>2023-11-20T14:11:12Z</time>
      </trkpt>
      <trkpt lat="48.74152" lon="7.05018">
        <ele>246.5</ele>
        <time>2023-11-20T14:11:18Z</time>
      </trkpt>
      <trkpt lat="48.74134" lon="7.05008">
        <ele>247.2</ele>
        <time>2023-11-20T14:11:25Z</time>
      </trkpt>
      <trkpt lat="48.74115" lon="7.04999">
        <ele>247.7</ele>
        <time>2023-11-20T14:11:32Z</time>
      </trkpt>
      <trkpt lat="48.74097" lon="7.04996">
        <ele>247.6</ele>
        <time>2023-11-20T14:11:38Z</time>
      </trkpt>
      <trkpt lat="48.74078" lon="7.04995">
        <ele>247.5</ele>
        <time>2023-11-20T14:11:44Z</time>
      </trkpt>
      <trkpt lat="48.74058" lon="7.04996">
        <ele>247.3</ele>
        <time>2023-11-20T14:11:51Z</time>
      </trkpt>
      <trkpt lat="48.74038" lon="7.04998">
        <ele>247.1</ele>
        <time>2023-11-20T14:11:58Z</time>
      </trkpt>
      <trkpt lat="48.74018" lon="7.05005">
        <ele>246.9</ele>
        <time>2023-11-20T14:12:05Z</time>
      </trkpt>
      <trkpt lat="48.74001" lon="7.05014">
        <ele>246.9</ele>
        <time>2023-11-20T14:12:11Z</time>
      </trkpt>
      <trkpt lat="48.73983" lon="7.05019">
        <ele>246.7</ele>
        <time>2023-11-20T14:12:17Z</time>
      </trkpt>
      <trkpt lat="48.73964" lon="7.05022">
        <ele>246.4</ele>
        <time>2023-11-20T14:12:23Z</time>
      </trkpt>
      <trkpt lat="48.73945" lon="7.05021">
        <ele>246.2</ele>
        <time>2023-11-20T14:12:29Z</time>
      </trkpt>
      <trkpt lat="48.73926" lon="7.05015">
        <ele>246.2</ele>
        <time>2023-11-20T14:12:35Z</time>
      </trkpt>
      <trkpt lat="48.73907" lon="7.05002">
        <ele>246.5</ele>
        <time>2023-11-20T14:12:41Z</time>
      </trkpt>
      <trkpt lat="48.73892" lon="7.04986">
        <ele>247.2</ele>
        <time>2023-11-20T14:12:47Z</time>
      </trkpt>
      <trkpt lat="48.73879" lon="7.04965">
        <ele>247.9</ele>
        <time>2023-11-20T14:12:54Z</time>
      </trkpt>
      <trkpt lat="48.73867" lon="7.04943">
        <ele>248.1</ele>
        <time>2023-11-20T14:13:01Z</time>
      </trkpt>
      <trkpt lat="48.73851" lon="7.04924">
        <ele>248.1</ele>
        <time>2023-11-20T14:13:08Z</time>
      </trkpt>
      <trkpt lat="48.73831" lon="7.04913">
        <ele>248.2</ele>
        <time>2023-11-20T14:13:15Z</time>
      </trkpt>
      <trkpt lat="48.73813" lon="7.0491">
        <ele>248.2</ele>
        <time>2023-11-20T14:13:22Z</time>
      </trkpt>
      <trkpt lat="48.73794" lon="7.04915">
        <ele>247.8</ele>
        <time>2023-11-20T14:13:29Z</time>
      </trkpt>
      <trkpt lat="48.73774" lon="7.04925">
        <ele>246.8</ele>
        <time>2023-11-20T14:13:35Z</time>
      </trkpt>
      <trkpt lat="48.73756" lon="7.04936">
        <ele>246.1</ele>
        <time>2023-11-20T14:13:42Z</time>
      </trkpt>
      <trkpt lat="48.73738" lon="7.04942">
        <ele>245.6</ele>
        <time>2023-11-20T14:13:49Z</time>
      </trkpt>
      <trkpt lat="48.73723" lon="7.04948">
        <ele>245.4</ele>
        <time>2023-11-20T14:13:55Z</time>
      </trkpt>
      <trkpt lat="48.73689" lon="7.04964">
        <ele>245.7</ele>
        <time>2023-11-20T14:14:02Z</time>
      </trkpt>
      <trkpt lat="48.73673" lon="7.04982">
        <ele>246.5</ele>
        <time>2023-11-20T14:14:07Z</time>
      </trkpt>
      <trkpt lat="48.73655" lon="7.04987">
        <ele>247.4</ele>
        <time>2023-11-20T14:14:14Z</time>
      </trkpt>
      <trkpt lat="48.73636" lon="7.04991">
        <ele>247.8</ele>
        <time>2023-11-20T14:14:20Z</time>
      </trkpt>
      <trkpt lat="48.73618" lon="7.04995">
        <ele>248</ele>
        <time>2023-11-20T14:14:26Z</time>
      </trkpt>
      <trkpt lat="48.73599" lon="7.04996">
        <ele>248.2</ele>
        <time>2023-11-20T14:14:32Z</time>
      </trkpt>
      <trkpt lat="48.7358" lon="7.05002">
        <ele>248.4</ele>
        <time>2023-11-20T14:14:39Z</time>
      </trkpt>
      <trkpt lat="48.73579" lon="7.05004">
        <ele>248.4</ele>
        <time>2023-11-20T14:14:48Z</time>
      </trkpt>
      <trkpt lat="48.73563" lon="7.05023">
        <ele>248.6</ele>
        <time>2023-11-20T14:14:56Z</time>
      </trkpt>
      <trkpt lat="48.73544" lon="7.05033">
        <ele>248.8</ele>
        <time>2023-11-20T14:15:02Z</time>
      </trkpt>
      <trkpt lat="48.73525" lon="7.05041">
        <ele>249.1</ele>
        <time>2023-11-20T14:15:08Z</time>
      </trkpt>
      <trkpt lat="48.73506" lon="7.05047">
        <ele>249.2</ele>
        <time>2023-11-20T14:15:14Z</time>
      </trkpt>
      <trkpt lat="48.735" lon="7.0505">
        <ele>249.1</ele>
        <time>2023-11-20T14:15:16Z</time>
      </trkpt>
      <trkpt lat="48.73479" lon="7.05045">
        <ele>248.8</ele>
        <time>2023-11-20T14:15:22Z</time>
      </trkpt>
      <trkpt lat="48.73471" lon="7.05051">
        <ele>248.5</ele>
        <time>2023-11-20T14:15:25Z</time>
      </trkpt>
      <trkpt lat="48.73467" lon="7.05078">
        <ele>248.2</ele>
        <time>2023-11-20T14:15:30Z</time>
      </trkpt>
      <trkpt lat="48.73465" lon="7.05105">
        <ele>248.3</ele>
        <time>2023-11-20T14:15:35Z</time>
      </trkpt>
      <trkpt lat="48.73461" lon="7.05135">
        <ele>248.2</ele>
        <time>2023-11-20T14:15:41Z</time>
      </trkpt>
      <trkpt lat="48.73456" lon="7.05164">
        <ele>248.5</ele>
        <time>2023-11-20T14:15:47Z</time>
      </trkpt>
      <trkpt lat="48.73461" lon="7.0518">
        <ele>249.2</ele>
        <time>2023-11-20T14:15:51Z</time>
      </trkpt>
      <trkpt lat="48.7348" lon="7.05188">
        <ele>250.2</ele>
        <time>2023-11-20T14:15:57Z</time>
      </trkpt>
      <trkpt lat="48.73489" lon="7.0518">
        <ele>250.3</ele>
        <time>2023-11-20T14:16:01Z</time>
      </trkpt>
      <trkpt lat="48.73498" lon="7.05153">
        <ele>249.7</ele>
        <time>2023-11-20T14:16:07Z</time>
      </trkpt>
      <trkpt lat="48.73503" lon="7.05137">
        <ele>249.3</ele>
        <time>2023-11-20T14:16:12Z</time>
      </trkpt>
    </trkseg>
  </trk>
</gpx>